sensor_id;sensor_type;location;lat;lon;timestamp;pressure;altitude;pressure_sealevel;temperature;humidity
33286;BME280;19656;50.096;20.014;2023-08-17T00:03:11;99265.57;;;24.97;61.53
33286;BME280;19656;50.096;20.014;2023-08-17T00:08:15;99258.92;;;24.96;61.41
33286;BME280;19656;50.096;20.014;2023-08-17T00:13:24;99265.00;;;25.00;61.29
33286;BME280;19656;50.096;20.014;2023-08-17T00:18:30;99273.16;;;24.96;61.56
33286;BME280;19656;50.096;20.014;2023-08-17T00:23:34;99276.52;;;24.94;61.62
33286;BME280;19656;50.096;20.014;2023-08-17T00:28:37;99282.94;;;24.87;62.07
33286;BME280;19656;50.096;20.014;2023-08-17T00:33:41;99283.37;;;24.77;62.11
33286;BME280;19656;50.096;20.014;2023-08-17T00:38:45;99288.41;;;24.73;62.75
33286;BME280;19656;50.096;20.014;2023-08-17T00:43:48;99282.77;;;24.67;63.19
33286;BME280;19656;50.096;20.014;2023-08-17T00:48:52;99274.41;;;24.64;63.64
33286;BME280;19656;50.096;20.014;2023-08-17T00:53:59;99279.62;;;24.67;64.05
33286;BME280;19656;50.096;20.014;2023-08-17T00:59:04;99280.47;;;24.72;64.04
33286;BME280;19656;50.096;20.014;2023-08-17T01:04:09;99274.54;;;24.75;63.78
33286;BME280;19656;50.096;20.014;2023-08-17T01:09:13;99273.23;;;24.75;63.80
33286;BME280;19656;50.096;20.014;2023-08-17T01:14:24;99274.16;;;24.69;63.99
33286;BME280;19656;50.096;20.014;2023-08-17T01:19:30;99278.96;;;24.57;64.33
33286;BME280;19656;50.096;20.014;2023-08-17T01:24:34;99282.09;;;24.48;64.95
33286;BME280;19656;50.096;20.014;2023-08-17T01:29:37;99274.73;;;24.44;65.33
33286;BME280;19656;50.096;20.014;2023-08-17T01:34:57;99266.89;;;24.43;65.24
33286;BME280;19656;50.096;20.014;2023-08-17T01:40:02;99284.42;;;24.43;65.20
33286;BME280;19656;50.096;20.014;2023-08-17T01:45:08;99306.45;;;24.46;65.45
33286;BME280;19656;50.096;20.014;2023-08-17T01:50:11;99295.42;;;24.47;65.66
33286;BME280;19656;50.096;20.014;2023-08-17T01:55:14;99302.66;;;24.38;65.98
33286;BME280;19656;50.096;20.014;2023-08-17T02:00:18;99309.45;;;24.23;66.56
33286;BME280;19656;50.096;20.014;2023-08-17T02:05:22;99293.45;;;24.12;66.77
33286;BME280;19656;50.096;20.014;2023-08-17T02:10:25;99287.65;;;23.99;66.93
33286;BME280;19656;50.096;20.014;2023-08-17T02:15:38;99281.50;;;23.98;67.06
33286;BME280;19656;50.096;20.014;2023-08-17T02:20:42;99290.75;;;24.04;67.22
33286;BME280;19656;50.096;20.014;2023-08-17T02:25:46;99290.61;;;24.08;67.18
33286;BME280;19656;50.096;20.014;2023-08-17T02:30:55;99296.92;;;24.07;67.11
33286;BME280;19656;50.096;20.014;2023-08-17T02:35:59;99309.55;;;24.04;67.40
33286;BME280;19656;50.096;20.014;2023-08-17T02:41:02;99317.11;;;23.98;67.65
33286;BME280;19656;50.096;20.014;2023-08-17T02:46:06;99323.80;;;23.91;68.16
33286;BME280;19656;50.096;20.014;2023-08-17T02:51:12;99328.70;;;23.84;68.43
33286;BME280;19656;50.096;20.014;2023-08-17T02:56:15;99329.84;;;23.80;68.81
33286;BME280;19656;50.096;20.014;2023-08-17T03:01:18;99329.05;;;23.83;69.05
33286;BME280;19656;50.096;20.014;2023-08-17T03:06:24;99325.96;;;23.89;68.90
33286;BME280;19656;50.096;20.014;2023-08-17T03:11:29;99324.84;;;23.91;69.13
33286;BME280;19656;50.096;20.014;2023-08-17T03:16:35;99316.06;;;23.89;69.14
33286;BME280;19656;50.096;20.014;2023-08-17T03:21:43;99304.30;;;23.89;69.00
33286;BME280;19656;50.096;20.014;2023-08-17T03:26:46;99314.86;;;23.99;69.44
33286;BME280;19656;50.096;20.014;2023-08-17T03:31:49;99323.37;;;24.04;68.63
33286;BME280;19656;50.096;20.014;2023-08-17T03:36:52;99335.23;;;24.00;68.71
33286;BME280;19656;50.096;20.014;2023-08-17T03:41:56;99349.36;;;24.00;68.60
33286;BME280;19656;50.096;20.014;2023-08-17T03:46:59;99342.95;;;23.96;68.45
33286;BME280;19656;50.096;20.014;2023-08-17T03:52:03;99341.65;;;23.89;68.57
33286;BME280;19656;50.096;20.014;2023-08-17T03:57:06;99343.48;;;23.80;68.58
33286;BME280;19656;50.096;20.014;2023-08-17T04:02:10;99346.11;;;23.73;68.68
33286;BME280;19656;50.096;20.014;2023-08-17T04:07:20;99338.43;;;23.70;68.39
33286;BME280;19656;50.096;20.014;2023-08-17T04:12:24;99344.92;;;23.72;68.39
33286;BME280;19656;50.096;20.014;2023-08-17T04:17:27;99348.30;;;23.84;68.67
33286;BME280;19656;50.096;20.014;2023-08-17T04:22:31;99347.48;;;23.91;68.44
33286;BME280;19656;50.096;20.014;2023-08-17T04:27:34;99355.54;;;23.91;68.41
33286;BME280;19656;50.096;20.014;2023-08-17T04:32:38;99365.91;;;23.89;68.64
33286;BME280;19656;50.096;20.014;2023-08-17T04:37:41;99369.43;;;23.86;68.59
33286;BME280;19656;50.096;20.014;2023-08-17T04:42:44;99365.00;;;23.80;68.51
33286;BME280;19656;50.096;20.014;2023-08-17T04:47:48;99364.18;;;23.76;68.78
33286;BME280;19656;50.096;20.014;2023-08-17T04:52:52;99368.56;;;23.79;69.31
33286;BME280;19656;50.096;20.014;2023-08-17T04:57:55;99368.84;;;23.78;69.16
33286;BME280;19656;50.096;20.014;2023-08-17T05:02:58;99366.09;;;23.75;69.08
33286;BME280;19656;50.096;20.014;2023-08-17T05:08:07;99370.38;;;23.73;69.29
33286;BME280;19656;50.096;20.014;2023-08-17T05:13:11;99370.54;;;23.70;69.16
33286;BME280;19656;50.096;20.014;2023-08-17T05:18:15;99377.66;;;23.67;69.18
33286;BME280;19656;50.096;20.014;2023-08-17T05:23:19;99382.20;;;23.69;69.22
33286;BME280;19656;50.096;20.014;2023-08-17T05:28:22;99375.52;;;23.79;69.20
33286;BME280;19656;50.096;20.014;2023-08-17T05:33:26;99371.88;;;23.90;68.79
33286;BME280;19656;50.096;20.014;2023-08-17T05:38:30;99375.89;;;23.90;68.79
33286;BME280;19656;50.096;20.014;2023-08-17T05:43:33;99375.99;;;23.89;68.64
33286;BME280;19656;50.096;20.014;2023-08-17T05:48:36;99382.03;;;23.87;68.31
33286;BME280;19656;50.096;20.014;2023-08-17T05:53:39;99385.79;;;23.86;68.51
33286;BME280;19656;50.096;20.014;2023-08-17T05:58:42;99383.57;;;23.84;68.88
33286;BME280;19656;50.096;20.014;2023-08-17T06:03:46;99384.42;;;23.91;69.17
33286;BME280;19656;50.096;20.014;2023-08-17T06:08:49;99383.27;;;23.99;68.71
33286;BME280;19656;50.096;20.014;2023-08-17T06:13:52;99381.70;;;24.04;68.62
33286;BME280;19656;50.096;20.014;2023-08-17T06:18:55;99381.15;;;24.11;68.41
33286;BME280;19656;50.096;20.014;2023-08-17T06:23:59;99390.40;;;24.17;67.96
33286;BME280;19656;50.096;20.014;2023-08-17T06:29:02;99386.96;;;24.25;67.59
33286;BME280;19656;50.096;20.014;2023-08-17T06:34:06;99385.06;;;24.32;66.99
33286;BME280;19656;50.096;20.014;2023-08-17T06:39:09;99378.19;;;24.45;66.65
33286;BME280;19656;50.096;20.014;2023-08-17T06:44:12;99375.11;;;24.59;66.45
33286;BME280;19656;50.096;20.014;2023-08-17T06:49:15;99367.65;;;24.65;66.03
33286;BME280;19656;50.096;20.014;2023-08-17T06:54:18;99365.41;;;24.77;65.40
33286;BME280;19656;50.096;20.014;2023-08-17T06:59:22;99365.01;;;24.82;64.86
33286;BME280;19656;50.096;20.014;2023-08-17T07:04:25;99362.02;;;24.83;64.25
33286;BME280;19656;50.096;20.014;2023-08-17T07:09:32;99362.77;;;24.83;64.24
33286;BME280;19656;50.096;20.014;2023-08-17T07:14:48;99366.96;;;24.87;64.43
33286;BME280;19656;50.096;20.014;2023-08-17T07:19:54;99362.20;;;24.92;63.62
33286;BME280;19656;50.096;20.014;2023-08-17T07:25:20;99366.89;;;25.05;63.70
33286;BME280;19656;50.096;20.014;2023-08-17T07:30:24;99361.65;;;25.19;63.29
33286;BME280;19656;50.096;20.014;2023-08-17T07:35:27;99357.65;;;25.30;62.80
33286;BME280;19656;50.096;20.014;2023-08-17T07:40:34;99353.28;;;25.45;62.70
33286;BME280;19656;50.096;20.014;2023-08-17T07:45:37;99352.11;;;25.62;62.19
33286;BME280;19656;50.096;20.014;2023-08-17T07:50:40;99348.80;;;25.81;62.28
33286;BME280;19656;50.096;20.014;2023-08-17T07:55:44;99344.50;;;26.00;61.93
33286;BME280;19656;50.096;20.014;2023-08-17T08:00:47;99343.89;;;26.15;61.15
33286;BME280;19656;50.096;20.014;2023-08-17T08:05:51;99343.66;;;26.17;61.08
33286;BME280;19656;50.096;20.014;2023-08-17T08:10:54;99345.06;;;26.25;61.27
33286;BME280;19656;50.096;20.014;2023-08-17T08:15:58;99348.06;;;26.34;61.25
33286;BME280;19656;50.096;20.014;2023-08-17T08:26:31;99341.69;;;26.55;61.16
33286;BME280;19656;50.096;20.014;2023-08-17T08:31:34;99338.73;;;26.70;60.83
33286;BME280;19656;50.096;20.014;2023-08-17T08:36:38;99333.16;;;26.87;60.63
33286;BME280;19656;50.096;20.014;2023-08-17T08:41:41;99332.14;;;27.01;59.70
33286;BME280;19656;50.096;20.014;2023-08-17T08:46:47;99329.31;;;27.15;59.55
33286;BME280;19656;50.096;20.014;2023-08-17T08:51:51;99324.30;;;27.27;58.90
33286;BME280;19656;50.096;20.014;2023-08-17T08:57:03;99315.75;;;27.38;58.48
33286;BME280;19656;50.096;20.014;2023-08-17T09:02:13;99311.39;;;27.35;58.55
33286;BME280;19656;50.096;20.014;2023-08-17T09:07:17;99315.44;;;27.36;58.30
33286;BME280;19656;50.096;20.014;2023-08-17T09:12:22;99316.24;;;27.37;58.44
33286;BME280;19656;50.096;20.014;2023-08-17T09:17:42;99316.70;;;27.51;58.32
33286;BME280;19656;50.096;20.014;2023-08-17T09:22:45;99314.17;;;27.63;57.91
33286;BME280;19656;50.096;20.014;2023-08-17T09:27:49;99321.77;;;27.74;57.02
33286;BME280;19656;50.096;20.014;2023-08-17T09:32:52;99320.84;;;27.74;56.88
33286;BME280;19656;50.096;20.014;2023-08-17T10:27:13;99303.34;;;29.04;51.40
33286;BME280;19656;50.096;20.014;2023-08-17T10:32:17;99308.61;;;28.96;50.38
33286;BME280;19656;50.096;20.014;2023-08-17T10:37:20;99314.09;;;29.10;49.90
33286;BME280;19656;50.096;20.014;2023-08-17T10:42:35;99321.14;;;29.12;49.45
33286;BME280;19656;50.096;20.014;2023-08-17T10:47:39;99319.77;;;29.05;48.79
33286;BME280;19656;50.096;20.014;2023-08-17T10:52:43;99327.54;;;29.08;49.26
33286;BME280;19656;50.096;20.014;2023-08-17T10:57:51;99329.94;;;29.04;49.59
33286;BME280;19656;50.096;20.014;2023-08-17T11:02:58;99327.94;;;28.93;49.75
33286;BME280;19656;50.096;20.014;2023-08-17T11:08:09;99336.65;;;28.85;48.79
33286;BME280;19656;50.096;20.014;2023-08-17T11:13:23;99341.60;;;28.78;48.57
33286;BME280;19656;50.096;20.014;2023-08-17T11:18:26;99347.84;;;28.70;48.81
33286;BME280;19656;50.096;20.014;2023-08-17T11:23:31;99347.59;;;28.60;48.73
33286;BME280;19656;50.096;20.014;2023-08-17T11:28:35;99347.23;;;28.56;48.59
33286;BME280;19656;50.096;20.014;2023-08-17T11:33:45;99345.39;;;28.66;48.90
33286;BME280;19656;50.096;20.014;2023-08-17T11:38:52;99349.52;;;28.78;48.92
33286;BME280;19656;50.096;20.014;2023-08-17T11:43:55;99347.55;;;28.90;49.02
33286;BME280;19656;50.096;20.014;2023-08-17T11:48:59;99342.99;;;29.19;47.77
33286;BME280;19656;50.096;20.014;2023-08-17T11:54:03;99338.79;;;29.55;47.17
33286;BME280;19656;50.096;20.014;2023-08-17T11:59:09;99334.80;;;29.95;47.26
33286;BME280;19656;50.096;20.014;2023-08-17T12:04:16;99337.61;;;30.40;47.11
33286;BME280;19656;50.096;20.014;2023-08-17T12:09:21;99342.23;;;30.70;46.49
33286;BME280;19656;50.096;20.014;2023-08-17T12:14:26;99339.20;;;30.81;45.02
33286;BME280;19656;50.096;20.014;2023-08-17T12:19:29;99346.64;;;30.65;44.49
33286;BME280;19656;50.096;20.014;2023-08-17T12:24:33;99347.86;;;30.26;44.03
33286;BME280;19656;50.096;20.014;2023-08-17T12:29:48;99353.61;;;29.89;43.50
33286;BME280;19656;50.096;20.014;2023-08-17T12:34:51;99379.02;;;29.59;44.10
33286;BME280;19656;50.096;20.014;2023-08-17T12:39:54;99419.52;;;29.24;44.43
33286;BME280;19656;50.096;20.014;2023-08-17T12:44:58;99422.00;;;28.63;44.75
33286;BME280;19656;50.096;20.014;2023-08-17T12:50:04;99425.44;;;28.00;45.60
33286;BME280;19656;50.096;20.014;2023-08-17T12:55:08;99411.55;;;27.63;46.82
33286;BME280;19656;50.096;20.014;2023-08-17T13:00:11;99394.52;;;27.34;47.71
33286;BME280;19656;50.096;20.014;2023-08-17T13:05:15;99395.14;;;27.11;48.45
33286;BME280;19656;50.096;20.014;2023-08-17T13:10:18;99388.85;;;26.78;48.71
33286;BME280;19656;50.096;20.014;2023-08-17T13:15:22;99356.63;;;26.43;48.68
33286;BME280;19656;50.096;20.014;2023-08-17T13:20:25;99362.57;;;26.10;49.31
33286;BME280;19656;50.096;20.014;2023-08-17T13:25:32;99329.98;;;25.89;49.94
33286;BME280;19656;50.096;20.014;2023-08-17T13:30:41;99324.52;;;25.83;50.22
33286;BME280;19656;50.096;20.014;2023-08-17T13:35:53;99339.96;;;25.79;50.32
33286;BME280;19656;50.096;20.014;2023-08-17T13:40:57;99336.55;;;25.73;50.44
33286;BME280;19656;50.096;20.014;2023-08-17T13:46:01;99330.36;;;25.72;50.59
33286;BME280;19656;50.096;20.014;2023-08-17T13:51:04;99331.55;;;25.68;50.17
33286;BME280;19656;50.096;20.014;2023-08-17T13:56:08;99327.20;;;25.61;50.13
33286;BME280;19656;50.096;20.014;2023-08-17T14:01:11;99320.05;;;25.64;50.20
33286;BME280;19656;50.096;20.014;2023-08-17T14:06:14;99315.14;;;25.79;50.43
33286;BME280;19656;50.096;20.014;2023-08-17T14:11:18;99317.70;;;26.03;49.65
33286;BME280;19656;50.096;20.014;2023-08-17T14:16:22;99317.46;;;26.30;49.33
33286;BME280;19656;50.096;20.014;2023-08-17T14:21:25;99326.79;;;26.62;48.82
33286;BME280;19656;50.096;20.014;2023-08-17T14:26:30;99329.16;;;26.87;48.14
33286;BME280;19656;50.096;20.014;2023-08-17T14:31:49;99329.05;;;27.15;48.20
33286;BME280;19656;50.096;20.014;2023-08-17T14:36:58;99343.96;;;27.33;47.40
33286;BME280;19656;50.096;20.014;2023-08-17T14:42:01;99340.61;;;27.39;47.49
33286;BME280;19656;50.096;20.014;2023-08-17T14:47:07;99335.53;;;27.40;47.03
33286;BME280;19656;50.096;20.014;2023-08-17T14:52:11;99342.02;;;27.29;46.73
33286;BME280;19656;50.096;20.014;2023-08-17T14:57:14;99342.13;;;27.17;47.38
33286;BME280;19656;50.096;20.014;2023-08-17T15:02:18;99347.70;;;27.09;47.89
33286;BME280;19656;50.096;20.014;2023-08-17T15:07:23;99345.73;;;27.00;48.36
33286;BME280;19656;50.096;20.014;2023-08-17T15:12:27;99339.09;;;26.89;49.11
33286;BME280;19656;50.096;20.014;2023-08-17T15:17:30;99332.88;;;26.84;49.55
33286;BME280;19656;50.096;20.014;2023-08-17T15:22:33;99327.42;;;26.78;49.54
33286;BME280;19656;50.096;20.014;2023-08-17T15:27:38;99320.01;;;26.69;49.69
33286;BME280;19656;50.096;20.014;2023-08-17T15:32:42;99322.80;;;26.61;50.14
33286;BME280;19656;50.096;20.014;2023-08-17T15:37:45;99324.33;;;26.53;50.47
33286;BME280;19656;50.096;20.014;2023-08-17T15:42:48;99319.36;;;26.43;50.51
33286;BME280;19656;50.096;20.014;2023-08-17T15:47:51;99321.66;;;26.35;51.01
33286;BME280;19656;50.096;20.014;2023-08-17T15:52:54;99330.11;;;26.30;51.25
33286;BME280;19656;50.096;20.014;2023-08-17T15:57:57;99331.95;;;26.20;51.24
33286;BME280;19656;50.096;20.014;2023-08-17T16:03:01;99340.16;;;26.04;51.76
33286;BME280;19656;50.096;20.014;2023-08-17T16:08:05;99338.86;;;26.01;51.73
33286;BME280;19656;50.096;20.014;2023-08-17T16:13:08;99333.77;;;26.01;51.82
33286;BME280;19656;50.096;20.014;2023-08-17T16:18:11;99325.55;;;26.00;51.83
33286;BME280;19656;50.096;20.014;2023-08-17T16:23:16;99320.35;;;25.98;51.83
33286;BME280;19656;50.096;20.014;2023-08-17T16:28:24;99313.14;;;25.94;52.06
33286;BME280;19656;50.096;20.014;2023-08-17T16:33:29;99306.10;;;25.93;52.11
33286;BME280;19656;50.096;20.014;2023-08-17T16:38:32;99299.22;;;25.91;52.16
33286;BME280;19656;50.096;20.014;2023-08-17T16:43:37;99296.13;;;25.92;52.41
33286;BME280;19656;50.096;20.014;2023-08-17T16:48:45;99283.89;;;25.89;52.68
33286;BME280;19656;50.096;20.014;2023-08-17T16:53:48;99280.71;;;25.85;52.90
33286;BME280;19656;50.096;20.014;2023-08-17T16:58:53;99279.73;;;25.81;53.07
33286;BME280;19656;50.096;20.014;2023-08-17T17:03:57;99273.90;;;25.79;52.88
33286;BME280;19656;50.096;20.014;2023-08-17T17:09:00;99272.13;;;25.77;53.06
33286;BME280;19656;50.096;20.014;2023-08-17T17:14:03;99264.36;;;25.76;53.74
33286;BME280;19656;50.096;20.014;2023-08-17T17:19:07;99251.52;;;25.70;54.04
33286;BME280;19656;50.096;20.014;2023-08-17T17:24:10;99232.40;;;25.70;54.55
33286;BME280;19656;50.096;20.014;2023-08-17T17:29:13;99231.20;;;25.63;54.46
33286;BME280;19656;50.096;20.014;2023-08-17T17:34:17;99240.77;;;25.47;54.97
33286;BME280;19656;50.096;20.014;2023-08-17T17:39:20;99252.42;;;25.33;55.56
33286;BME280;19656;50.096;20.014;2023-08-17T17:44:24;99256.02;;;25.32;55.92
33286;BME280;19656;50.096;20.014;2023-08-17T17:49:27;99250.00;;;25.37;55.75
33286;BME280;19656;50.096;20.014;2023-08-17T17:54:30;99244.59;;;25.39;56.04
33286;BME280;19656;50.096;20.014;2023-08-17T17:59:33;99244.55;;;25.42;56.13
33286;BME280;19656;50.096;20.014;2023-08-17T18:04:36;99248.77;;;25.38;56.67
33286;BME280;19656;50.096;20.014;2023-08-17T18:09:40;99252.02;;;25.27;56.89
33286;BME280;19656;50.096;20.014;2023-08-17T18:14:49;99256.98;;;25.18;57.08
33286;BME280;19656;50.096;20.014;2023-08-17T18:19:53;99247.33;;;25.09;57.53
33286;BME280;19656;50.096;20.014;2023-08-17T18:24:56;99263.01;;;25.07;58.58
33286;BME280;19656;50.096;20.014;2023-08-17T18:29:59;99273.84;;;25.13;58.83
33286;BME280;19656;50.096;20.014;2023-08-17T18:35:03;99278.48;;;25.16;59.86
33286;BME280;19656;50.096;20.014;2023-08-17T18:40:07;99280.63;;;25.16;59.60
33286;BME280;19656;50.096;20.014;2023-08-17T18:45:12;99280.30;;;25.11;59.75
33286;BME280;19656;50.096;20.014;2023-08-17T18:50:17;99304.23;;;25.14;60.39
33286;BME280;19656;50.096;20.014;2023-08-17T18:55:21;99311.94;;;25.12;59.49
33286;BME280;19656;50.096;20.014;2023-08-17T19:00:24;99318.12;;;25.03;58.87
33286;BME280;19656;50.096;20.014;2023-08-17T19:05:28;99309.09;;;24.93;58.41
33286;BME280;19656;50.096;20.014;2023-08-17T19:10:31;99312.13;;;24.78;58.80
33286;BME280;19656;50.096;20.014;2023-08-17T19:16:11;99303.36;;;24.69;59.10
33286;BME280;19656;50.096;20.014;2023-08-17T19:21:14;99299.24;;;24.62;59.49
33286;BME280;19656;50.096;20.014;2023-08-17T19:26:17;99291.77;;;24.55;59.30
33286;BME280;19656;50.096;20.014;2023-08-17T19:31:20;99295.70;;;24.49;59.28
33286;BME280;19656;50.096;20.014;2023-08-17T19:36:24;99292.65;;;24.44;59.39
33286;BME280;19656;50.096;20.014;2023-08-17T19:41:27;99298.34;;;24.41;59.60
33286;BME280;19656;50.096;20.014;2023-08-17T19:46:32;99303.39;;;24.31;59.76
33286;BME280;19656;50.096;20.014;2023-08-17T19:51:45;99300.25;;;24.25;60.12
33286;BME280;19656;50.096;20.014;2023-08-17T19:56:51;99294.94;;;24.21;60.15
33286;BME280;19656;50.096;20.014;2023-08-17T20:01:58;99301.90;;;24.14;60.28
33286;BME280;19656;50.096;20.014;2023-08-17T20:07:01;99295.30;;;24.07;60.49
33286;BME280;19656;50.096;20.014;2023-08-17T20:12:06;99297.89;;;24.03;60.63
33286;BME280;19656;50.096;20.014;2023-08-17T20:17:10;99288.61;;;24.05;60.88
33286;BME280;19656;50.096;20.014;2023-08-17T20:22:13;99273.35;;;24.05;60.80
33286;BME280;19656;50.096;20.014;2023-08-17T20:27:17;99271.18;;;24.00;60.58
33286;BME280;19656;50.096;20.014;2023-08-17T20:32:20;99267.82;;;24.00;60.48
33286;BME280;19656;50.096;20.014;2023-08-17T20:37:23;99258.61;;;24.03;60.95
33286;BME280;19656;50.096;20.014;2023-08-17T20:42:26;99257.15;;;24.01;61.00
33286;BME280;19656;50.096;20.014;2023-08-17T20:47:29;99261.17;;;23.98;61.07
33286;BME280;19656;50.096;20.014;2023-08-17T20:52:33;99271.94;;;23.93;61.43
33286;BME280;19656;50.096;20.014;2023-08-17T20:57:36;99275.23;;;23.89;61.55
33286;BME280;19656;50.096;20.014;2023-08-17T21:02:40;99275.56;;;23.94;61.83
33286;BME280;19656;50.096;20.014;2023-08-17T21:07:43;99281.98;;;23.96;61.89
33286;BME280;19656;50.096;20.014;2023-08-17T21:12:47;99279.98;;;23.92;61.80
33286;BME280;19656;50.096;20.014;2023-08-17T21:17:50;99284.09;;;23.83;62.00
33286;BME280;19656;50.096;20.014;2023-08-17T21:22:53;99286.73;;;23.75;62.52
33286;BME280;19656;50.096;20.014;2023-08-17T21:27:56;99289.73;;;23.70;62.87
33286;BME280;19656;50.096;20.014;2023-08-17T21:32:59;99293.38;;;23.61;63.04
33286;BME280;19656;50.096;20.014;2023-08-17T21:38:04;99293.46;;;23.54;63.35
33286;BME280;19656;50.096;20.014;2023-08-17T21:43:22;99297.43;;;23.49;63.74
33286;BME280;19656;50.096;20.014;2023-08-17T21:48:26;99294.80;;;23.46;64.16
33286;BME280;19656;50.096;20.014;2023-08-17T21:53:30;99303.02;;;23.45;64.35
33286;BME280;19656;50.096;20.014;2023-08-17T21:58:33;99303.45;;;23.48;64.65
33286;BME280;19656;50.096;20.014;2023-08-17T22:03:36;99307.60;;;23.51;64.62
33286;BME280;19656;50.096;20.014;2023-08-17T22:08:39;99319.33;;;23.48;64.47
33286;BME280;19656;50.096;20.014;2023-08-17T22:13:42;99321.11;;;23.45;64.50
33286;BME280;19656;50.096;20.014;2023-08-17T22:18:46;99317.38;;;23.48;64.42
33286;BME280;19656;50.096;20.014;2023-08-17T22:23:49;99312.28;;;23.52;64.45
33286;BME280;19656;50.096;20.014;2023-08-17T22:28:52;99307.63;;;23.54;64.25
33286;BME280;19656;50.096;20.014;2023-08-17T22:33:55;99299.34;;;23.53;64.41
33286;BME280;19656;50.096;20.014;2023-08-17T22:39:08;99289.35;;;23.52;64.96
33286;BME280;19656;50.096;20.014;2023-08-17T22:44:11;99285.80;;;23.51;64.90
33286;BME280;19656;50.096;20.014;2023-08-17T22:49:14;99289.27;;;23.53;65.05
33286;BME280;19656;50.096;20.014;2023-08-17T22:54:17;99294.06;;;23.57;65.14
33286;BME280;19656;50.096;20.014;2023-08-17T22:59:21;99294.06;;;23.56;65.23
33286;BME280;19656;50.096;20.014;2023-08-17T23:04:24;99291.23;;;23.53;65.33
33286;BME280;19656;50.096;20.014;2023-08-17T23:09:30;99284.50;;;23.49;65.35
33286;BME280;19656;50.096;20.014;2023-08-17T23:14:36;99278.73;;;23.45;65.47
33286;BME280;19656;50.096;20.014;2023-08-17T23:19:56;99276.80;;;23.43;65.49
33286;BME280;19656;50.096;20.014;2023-08-17T23:24:59;99272.23;;;23.38;65.65
33286;BME280;19656;50.096;20.014;2023-08-17T23:30:03;99265.50;;;23.32;65.86
33286;BME280;19656;50.096;20.014;2023-08-17T23:35:07;99259.84;;;23.29;65.90
33286;BME280;19656;50.096;20.014;2023-08-17T23:40:10;99260.02;;;23.31;66.32
33286;BME280;19656;50.096;20.014;2023-08-17T23:45:14;99256.48;;;23.32;66.50
33286;BME280;19656;50.096;20.014;2023-08-17T23:50:17;99257.02;;;23.32;66.77
33286;BME280;19656;50.096;20.014;2023-08-17T23:55:20;99258.61;;;23.30;66.80
